Sunday, July 22, 2018, 12:18 PM EDT
Back to Local

KELM, Elmira County Airport

Location: Horseheads, NY, United States Lat: 42.167
Local Time: 12:18 PM EDT (16:18 GMT) Lon: -76.9
Time Zone: US/Eastern Elev: 954 ft

Show me the last for .
Show Decoded

2018-07-22 11:53 METAR KELM 221553Z 18012G20KT 10SM BKN025 OVC034 24/19 A2981 RMK AO2 SLP090
                 T02390189 =
2018-07-22 10:53 METAR KELM 221453Z 20015G22KT 10SM BKN025 23/18 A2978 RMK AO2 SLP080 60003
                 T02330183 53029 =
2018-07-22 09:53 METAR KELM 221353Z 20010G15KT 10SM OVC021 23/19 A2974 RMK AO2 RAE17B34E44 SLP066
                 P0000 T02280194 =
2018-07-22 09:29 METAR KELM 221329Z 17011KT 10SM BKN024 BKN033 OVC048 22/20 A2972 RMK AO2 RAE17
                 P0000 T02220200 =
2018-07-22 08:53 METAR KELM 221253Z 12010G19KT 4SM -RA BR SCT009 BKN033 OVC043 22/20 A2971 RMK
                 AO2 SLP055 P0003 T02170200 =
2018-07-22 08:51 METAR KELM 221251Z 12011G19KT 3SM -RA BR SCT010 BKN017 OVC040 21/20 A2971 RMK
                 AO2 P0003 =
2018-07-22 08:45 METAR KELM 221245Z 14008KT 1 3/4SM R24/6000VP6000FT -RA BR SCT010 BKN015 OVC021
                 21/20 A2971 RMK AO2 P0003 T02110200 =
2018-07-22 08:24 METAR KELM 221224Z 10010KT 2 1/2SM -RA BR BKN013 OVC017 21/19 A2970 RMK AO2
                 P0001 T02110194 =
2018-07-22 08:00 METAR KELM 221200Z 08010KT 5SM -RA BR BKN013 OVC020 21/19 A2969 RMK AO2 P0000
                 T02060194 =
2018-07-22 07:53 METAR KELM 221153Z 06009KT 2 1/2SM -RA BR OVC013 20/19 A2969 RMK AO2 SLP050
                 P0008 60054 70100 T02000194 10200 20144 55003 =
2018-07-22 07:45 METAR KELM 221145Z 06009KT 2SM R24/5500VP6000FT -RA BR OVC015 19/19 A2969 RMK
                 AO2 P0008 T01940189 =
2018-07-22 07:37 METAR KELM 221137Z 05008KT 1 3/4SM -RA BR OVC013 19/19 A2969 RMK AO2 P0007
                 T01940189 =
2018-07-22 07:26 METAR KELM 221126Z 04009KT 2SM -RA BR BKN013 OVC018 19/19 A2968 RMK AO2 P0006
                 T01940189 =
2018-07-22 07:23 METAR KELM 221123Z 04008KT 1 3/4SM -RA BR OVC015 19/19 A2968 RMK AO2 P0006
                 T01940189 =
2018-07-22 07:16 METAR KELM 221116Z 04008KT 2SM R24/3500VP6000FT RA BR OVC015 19/19 A2969 RMK AO2
                 P0005 T01890189 =
2018-07-22 06:53 METAR KELM 221053Z 05008KT 1 3/4SM -RA BR OVC013 19/18 A2968 RMK AO2 SLP048
                 P0003 T01890183 =
2018-07-22 06:51 METAR KELM 221051Z 05008KT 1 3/4SM RA BR OVC013 19/18 A2968 RMK AO2 P0003 =
2018-07-22 06:09 METAR KELM 221009Z 05011KT 6SM -RA BR OVC010 18/17 A2969 RMK AO2 CIG 006V016
                 P0001 T01830172 =
2018-07-22 05:53 METAR KELM 220953Z 04009KT 2 1/2SM -RA BR SCT009 BKN012 OVC018 18/17 A2969 RMK
                 AO2 SLP048 P0006 T01780172 =
2018-07-22 05:50 METAR KELM 220950Z 04010KT 2 1/2SM -RA BR BKN009 OVC016 18/17 A2969 RMK AO2
                 P0006 =
2018-07-22 05:19 METAR KELM 220919Z AUTO 06010KT 2 1/2SM -RA BR OVC011 17/17 A2970 RMK AO2 CIG
                 008V013 P0003 T01720167 =
2018-07-22 04:53 METAR KELM 220853Z AUTO 05008KT 7SM -RA OVC011 17/16 A2970 RMK AO2 LTG DSNT SW
                 AND W SLP053 P0024 60037 T01720161 58055 =
2018-07-22 04:18 METAR KELM 220818Z AUTO 06009KT 3SM RA BR OVC013 17/16 A2972 RMK AO2 PRESFR
                 P0017 T01670161 =
2018-07-22 04:09 METAR KELM 220809Z AUTO 04009KT 1 3/4SM R24/4500VP6000FT +RA BR OVC014 17/16
                 A2973 RMK AO2 PRESFR P0015 T01670161 =
2018-07-22 03:53 METAR KELM 220753Z AUTO 05007KT 4SM +RA BR OVC014 17/16 A2975 RMK AO2 PRESFR
                 SLP071 P0007 T01670161 =
2018-07-22 03:44 METAR KELM 220744Z AUTO 04007KT 6SM RA BR BKN014 OVC020 17/16 A2977 RMK AO2
                 PRESFR P0004 T01670161 =
2018-07-22 02:53 METAR KELM 220653Z AUTO 10005KT 10SM -RA SCT016 OVC022 16/16 A2983 RMK AO2
                 SLP096 P0006 T01560156 =
2018-07-22 01:53 METAR KELM 220553Z AUTO 00000KT 4SM +RA BR FEW003 OVC018 14/14 A2987 RMK AO2
                 SLP110 P0013 60042 T01440144 10183 20144 56019 =
2018-07-22 01:50 METAR KELM 220550Z AUTO 00000KT 7SM -RA FEW003 OVC020 14/14 A2987 RMK AO2 P0011
                 =
2018-07-22 01:24 METAR KELM 220524Z AUTO 00000KT 3SM RA BR OVC022 14/14 A2988 RMK AO2 P0009
                 T01440139 =
2018-07-22 01:13 METAR KELM 220513Z AUTO 00000KT 2 1/2SM RA BR OVC022 14/14 A2988 RMK AO2 P0006
                 T01440139 =
2018-07-22 00:53 METAR KELM 220453Z AUTO 00000KT 4SM RA BR OVC028 14/14 A2989 RMK AO2 SLP118
                 P0008 T01440139 402440144 =
2018-07-22 00:28 METAR KELM 220428Z AUTO 20003KT 6SM RA BR BKN028 OVC080 14/14 A2991 RMK AO2
                 P0004 T01440139 =
2018-07-21 23:53 METAR KELM 220353Z AUTO 00000KT 7SM -RA BKN030 BKN038 OVC095 14/14 A2993 RMK AO2
                 SLP130 P0004 T01440139 =
2018-07-21 22:53 METAR KELM 220253Z 35003KT 10SM -RA FEW055 BKN090 OVC120 14/13 A2995 RMK AO2
                 WSHFT 0156 PRESFR SLP140 P0006 60017 T01440133 58009 =
2018-07-21 22:16 METAR KELM 220216Z 11013G20KT 4SM +RA BKN055 BKN070 OVC120 16/12 A2999 RMK AO2
                 WSHFT 0156 P0003 T01610117 =
2018-07-21 21:53 METAR KELM 220153Z VRB05KT 10SM -RA FEW050 BKN110 18/16 A2998 RMK AO2 SLP148
                 P0002 T01780161 =
2018-07-21 20:53 METAR KELM 220053Z VRB03KT 4SM -RA BR SCT016 BKN055 BKN080 18/16 A2999 RMK AO2
                 SLP150 P0009 T01780161 =
2018-07-21 20:35 METAR KELM 220035Z 00000KT 4SM RA BR BKN016 BKN055 OVC070 17/17 A2998 RMK AO2
                 P0008 T01720167 =
2018-07-21 19:53 METAR KELM 212353Z 00000KT 10SM -RA SCT070 BKN095 OVC120 18/16 A2998 RMK AO2
                 SLP149 P0000 60004 T01780161 10228 20178 58002 =
2018-07-21 18:53 METAR KELM 212253Z 28003KT 10SM -RA BKN110 18/16 A2999 RMK AO2 SLP151 P0002
                 T01780161 =
2018-07-21 17:53 METAR KELM 212153Z 23005KT 10SM -RA BKN110 19/16 A2999 RMK AO2 SLP151 P0000
                 T01890156 =
2018-07-21 16:53 METAR KELM 212053Z 23004KT 10SM -RA BKN095 OVC110 20/15 A2999 RMK AO2 SLP150
                 P0002 60002 T02000150 58001 =
2018-07-21 15:53 METAR KELM 211953Z 17008KT 10SM -RA FEW055 BKN100 22/12 A3000 RMK AO2 RAB47
                 SLP154 P0000 T02170117 =
2018-07-21 14:53 METAR KELM 211853Z 12012KT 10SM CLR 22/14 A3000 RMK AO2 RAE1754 SLP154 P0000
                 T02220139 =
2018-07-21 13:53 METAR KELM 211753Z 14008KT 10SM -RA FEW060 FEW080 BKN110 23/15 A2999 RMK AO2
                 RAB25 SLP150 P0000 60000 T02280150 10244 20189 56011 =
2018-07-21 12:53 METAR KELM 211653Z 15010KT 10SM CLR 23/15 A3000 RMK AO2 SLP152 T02330150 =

Support USWX by starting your Amazon purchase here.